createdAt,value
2023-05-18T00:00:19.520Z,101810.47
2023-05-18T00:02:48.478Z,101788.22
2023-05-18T00:05:18.167Z,101820.22
2023-05-18T00:07:46.395Z,101813.69
2023-05-18T00:10:15.685Z,101815.75
2023-05-18T00:12:43.489Z,101803.25
2023-05-18T00:15:11.640Z,101811.19
2023-05-18T00:17:39.448Z,101809.72
2023-05-18T00:20:13.354Z,101805.16
2023-05-18T00:22:42.850Z,101806.34
2023-05-18T00:25:11.004Z,101807.50
2023-05-18T00:27:40.173Z,101814.50
2023-05-18T00:30:09.090Z,101816.41
2023-05-18T00:32:37.140Z,101813.03
2023-05-18T00:35:05.708Z,101789.34
2023-05-18T00:37:33.489Z,101811.78
2023-05-18T00:40:01.296Z,101804.81
2023-05-18T00:42:29.400Z,101809.25
2023-05-18T00:44:58.603Z,101806.59
2023-05-18T00:47:27.609Z,101789.28
2023-05-18T00:49:55.760Z,101811.72
2023-05-18T00:52:24.676Z,101809.91
2023-05-18T00:54:53.773Z,101809.50
2023-05-18T00:57:21.581Z,101814.06
2023-05-18T00:59:51.189Z,101819.38
2023-05-18T01:02:20.453Z,101809.09
2023-05-18T01:04:48.557Z,101812.81
2023-05-18T01:07:16.568Z,101807.00
2023-05-18T01:09:44.439Z,101796.75
2023-05-18T01:12:22.037Z,101796.19
2023-05-18T01:14:57.156Z,101804.84
2023-05-18T01:17:35.103Z,101796.22
2023-05-18T01:20:30.133Z,101802.88
2023-05-18T01:23:10.168Z,101802.34
2023-05-18T01:25:48.554Z,101805.34
2023-05-18T01:28:21.437Z,101798.78
2023-05-18T01:30:49.635Z,101796.44
2023-05-18T01:33:17.457Z,101801.97
2023-05-18T01:35:48.425Z,101798.06
2023-05-18T01:38:18.776Z,101808.53
2023-05-18T01:40:55.907Z,101808.63
2023-05-18T01:43:31.766Z,101796.06
2023-05-18T01:46:05.307Z,101805.34
2023-05-18T01:48:38.063Z,101811.94
2023-05-18T01:51:07.425Z,101807.59
2023-05-18T01:53:42.238Z,101806.09
2023-05-18T01:56:13.892Z,101807.81
2023-05-18T01:58:44.477Z,101804.50
2023-05-18T02:01:12.631Z,101802.41
2023-05-18T02:03:40.586Z,101802.41
2023-05-18T02:06:08.713Z,101803.56
2023-05-18T02:08:37.741Z,101802.53
2023-05-18T02:11:05.886Z,101795.63
2023-05-18T02:13:34.386Z,101796.88
2023-05-18T02:16:04.409Z,101806.41
2023-05-18T02:18:34.129Z,101808.50
2023-05-18T02:21:02.748Z,101802.50
2023-05-18T02:23:33.902Z,101801.66
2023-05-18T02:26:02.188Z,101788.31
2023-05-18T02:28:30.674Z,101794.25
2023-05-18T02:31:07.924Z,101803.47
2023-05-18T02:33:39.831Z,101812.53
2023-05-18T02:36:09.835Z,101806.50
2023-05-18T02:38:38.914Z,101806.50
2023-05-18T02:41:08.121Z,101810.84
2023-05-18T02:43:36.386Z,101811.06
2023-05-18T02:46:04.705Z,101779.06
2023-05-18T02:48:35.129Z,101810.63
2023-05-18T02:51:02.986Z,101799.78
2023-05-18T02:53:31.122Z,101782.75
2023-05-18T02:56:04.906Z,101805.16
2023-05-18T02:58:43.692Z,101810.06
2023-05-18T03:01:18.805Z,101809.72
2023-05-18T03:03:53.075Z,101802.09
2023-05-18T03:06:23.374Z,101815.63
2023-05-18T03:08:54.248Z,101785.56
2023-05-18T03:11:26.204Z,101811.94
2023-05-18T03:13:54.775Z,101810.44
2023-05-18T03:16:28.020Z,101803.13
2023-05-18T03:18:59.123Z,101806.28
2023-05-18T03:21:33.813Z,101805.78
2023-05-18T03:24:03.250Z,101806.53
2023-05-18T03:26:32.842Z,101813.69
2023-05-18T03:29:01.201Z,101812.66
2023-05-18T03:31:29.110Z,101792.72
2023-05-18T03:34:00.281Z,101820.88
2023-05-18T03:36:28.908Z,101815.97
2023-05-18T03:38:56.702Z,101819.56
2023-05-18T03:41:25.029Z,101805.19
2023-05-18T03:43:54.990Z,101813.84
2023-05-18T03:46:23.805Z,101808.75
2023-05-18T03:48:53.864Z,101817.53
2023-05-18T03:51:29.174Z,101813.19
2023-05-18T03:53:57.079Z,101815.84
2023-05-18T03:56:24.898Z,101810.94
2023-05-18T03:58:52.929Z,101820.75
2023-05-18T04:01:23.755Z,101813.38
2023-05-18T04:03:56.445Z,101814.25
2023-05-18T04:06:27.624Z,101815.09
2023-05-18T04:08:55.864Z,101818.66
2023-05-18T04:11:24.418Z,101815.47
2023-05-18T04:13:52.176Z,101829.25
2023-05-18T04:16:21.995Z,101823.19
2023-05-18T04:18:49.941Z,101826.88
2023-05-18T04:21:19.427Z,101808.06
2023-05-18T04:23:49.012Z,101831.88
2023-05-18T04:26:20.256Z,101826.78
2023-05-18T04:28:48.345Z,101817.59
2023-05-18T04:31:17.868Z,101830.19
2023-05-18T04:33:46.661Z,101827.44
2023-05-18T04:36:15.149Z,101821.31
2023-05-18T04:38:43.171Z,101827.25
2023-05-18T04:41:12.594Z,101834.22
2023-05-18T04:43:41.665Z,101831.50
2023-05-18T04:46:10.239Z,101840.69
2023-05-18T04:48:38.940Z,101836.72
2023-05-18T04:51:07.187Z,101834.59
2023-05-18T04:53:35.682Z,101836.31
2023-05-18T04:56:03.515Z,101846.78
2023-05-18T04:58:35.603Z,101839.69
2023-05-18T05:01:03.468Z,101849.63
2023-05-18T05:03:31.461Z,101847.81
2023-05-18T05:05:59.460Z,101847.09
2023-05-18T05:08:27.265Z,101850.47
2023-05-18T05:10:55.098Z,101846.03
2023-05-18T05:13:22.992Z,101848.38
2023-05-18T05:15:52.355Z,101845.53
2023-05-18T05:18:20.427Z,101844.78
2023-05-18T05:20:49.151Z,101843.00
2023-05-18T05:23:17.720Z,101852.50
2023-05-18T05:25:46.852Z,101843.34
2023-05-18T05:28:14.709Z,101846.72
2023-05-18T05:30:43.345Z,101854.53
2023-05-18T05:33:12.577Z,101850.09
2023-05-18T05:35:40.624Z,101851.16
2023-05-18T05:38:08.484Z,101848.09
2023-05-18T05:40:36.522Z,101855.75
2023-05-18T05:43:06.091Z,101852.06
2023-05-18T05:45:34.443Z,101848.66
2023-05-18T05:48:06.156Z,101863.19
2023-05-18T05:50:37.015Z,101858.63
2023-05-18T05:53:06.245Z,101828.31
2023-05-18T05:55:41.220Z,101862.97
2023-05-18T05:58:13.002Z,101861.00
2023-05-18T06:00:43.240Z,101855.50
2023-05-18T06:03:11.177Z,101860.69
2023-05-18T06:05:44.303Z,101863.00
2023-05-18T06:08:14.169Z,101858.56
2023-05-18T06:10:42.600Z,101865.75
2023-05-18T06:13:12.651Z,101873.09
2023-05-18T06:15:48.993Z,101863.66
2023-05-18T06:18:16.879Z,101863.34
2023-05-18T06:20:47.393Z,101869.50
2023-05-18T06:23:22.402Z,101869.38
2023-05-18T06:26:07.046Z,101870.34
2023-05-18T06:28:53.013Z,101871.84
2023-05-18T06:31:41.478Z,101874.78
2023-05-18T06:34:12.070Z,101879.88
2023-05-18T06:36:41.660Z,101880.50
2023-05-18T06:39:09.770Z,101873.72
2023-05-18T06:41:37.601Z,101847.28
2023-05-18T06:44:06.612Z,101877.88
2023-05-18T06:46:37.914Z,101880.50
2023-05-18T06:49:14.835Z,101888.09
2023-05-18T06:51:44.125Z,101880.31
2023-05-18T06:54:12.560Z,101890.13
2023-05-18T06:56:40.442Z,101887.28
2023-05-18T06:59:08.398Z,101886.94
2023-05-18T07:01:36.785Z,101887.69
2023-05-18T07:04:05.771Z,101866.72
2023-05-18T07:06:33.725Z,101886.31
2023-05-18T07:09:03.587Z,101878.97
2023-05-18T07:11:31.394Z,101884.16
2023-05-18T07:13:59.165Z,101883.00
2023-05-18T07:16:28.330Z,101886.59
2023-05-18T07:18:57.568Z,101879.50
2023-05-18T07:21:26.222Z,101880.97
2023-05-18T07:23:54.101Z,101887.66
2023-05-18T07:26:23.472Z,101890.06
2023-05-18T07:28:51.951Z,101884.44
2023-05-18T07:31:21.684Z,101887.84
2023-05-18T07:33:49.821Z,101876.19
2023-05-18T07:36:17.691Z,101863.94
2023-05-18T07:38:45.457Z,101876.91
2023-05-18T07:41:13.414Z,101877.63
2023-05-18T07:43:42.552Z,101873.09
2023-05-18T07:46:10.348Z,101873.72
2023-05-18T07:48:40.546Z,101868.31
2023-05-18T07:51:09.169Z,101841.63
2023-05-18T07:53:37.930Z,101869.34
2023-05-18T07:56:07.035Z,101867.41
2023-05-18T07:58:35.038Z,101864.03
2023-05-18T08:01:04.541Z,101859.03
2023-05-18T08:03:32.929Z,101854.97
2023-05-18T08:06:01.196Z,101853.78
2023-05-18T08:08:29.017Z,101862.69
2023-05-18T08:10:56.804Z,101855.69
2023-05-18T08:13:24.660Z,101858.13
2023-05-18T08:16:02.980Z,101854.28
2023-05-18T08:18:39.364Z,101856.00
2023-05-18T08:21:09.912Z,101855.72
2023-05-18T08:23:38.633Z,101842.88
2023-05-18T08:26:08.236Z,101851.59
2023-05-18T08:28:36.274Z,101846.63
2023-05-18T08:31:04.073Z,101850.28
2023-05-18T08:33:32.533Z,101845.44
2023-05-18T08:36:01.848Z,101833.66
2023-05-18T08:38:29.785Z,101835.34
2023-05-18T08:41:09.432Z,101826.19
2023-05-18T08:43:42.899Z,101840.00
2023-05-18T08:46:18.343Z,101836.59
2023-05-18T08:48:46.927Z,101832.25
2023-05-18T08:51:20.608Z,101840.34
2023-05-18T08:53:53.967Z,101822.88
2023-05-18T08:56:24.370Z,101823.00
2023-05-18T08:58:56.052Z,101838.59
2023-05-18T09:01:28.838Z,101837.84
2023-05-18T09:03:58.103Z,101830.00
2023-05-18T09:06:28.385Z,101829.38
2023-05-18T09:08:58.425Z,101833.28
2023-05-18T09:11:28.208Z,101834.69
2023-05-18T09:13:56.053Z,101834.03
2023-05-18T09:16:24.603Z,101839.56
2023-05-18T09:18:52.876Z,101837.16
2023-05-18T09:21:20.754Z,101835.97
2023-05-18T09:23:52.438Z,101832.34
2023-05-18T09:26:21.725Z,101837.16
2023-05-18T09:28:54.138Z,101836.44
2023-05-18T09:31:24.607Z,101836.94
2023-05-18T09:33:53.777Z,101817.38
2023-05-18T09:36:26.142Z,101835.25
2023-05-18T09:38:55.465Z,101773.31
2023-05-18T09:41:27.572Z,101807.00
2023-05-18T09:43:55.772Z,101828.84
2023-05-18T09:46:23.579Z,101829.56
2023-05-18T09:48:54.025Z,101831.09
2023-05-18T09:51:25.242Z,101824.59
2023-05-18T09:53:57.017Z,101827.75
2023-05-18T09:56:26.933Z,101823.63
2023-05-18T09:58:55.458Z,101818.78
2023-05-18T10:01:23.315Z,101772.81
2023-05-18T10:03:51.246Z,101818.47
2023-05-18T10:06:21.394Z,101815.44
2023-05-18T10:08:49.583Z,101817.94
2023-05-18T10:11:21.966Z,101823.75
2023-05-18T10:13:55.327Z,101803.72
2023-05-18T10:16:25.137Z,101808.63
2023-05-18T10:18:55.765Z,101811.41
2023-05-18T10:21:32.206Z,101796.41
2023-05-18T10:24:02.862Z,101796.06
2023-05-18T10:26:41.955Z,101766.34
2023-05-18T10:29:11.372Z,101791.31
2023-05-18T10:31:40.188Z,101785.88
2023-05-18T10:34:10.447Z,101793.69
2023-05-18T10:36:39.325Z,101791.66
2023-05-18T10:39:08.922Z,101790.63
2023-05-18T10:41:40.289Z,101785.16
2023-05-18T10:44:08.811Z,101780.59
2023-05-18T10:46:37.069Z,101788.75
2023-05-18T10:49:12.940Z,101765.13
2023-05-18T10:51:43.634Z,101786.22
2023-05-18T10:54:14.049Z,101794.72
2023-05-18T10:56:47.745Z,101792.91
2023-05-18T10:59:18.382Z,101778.50
2023-05-18T11:01:48.089Z,101756.31
2023-05-18T11:04:16.058Z,101761.13
2023-05-18T11:06:43.848Z,101782.22
2023-05-18T11:09:24.860Z,101780.00
2023-05-18T11:11:56.017Z,101774.88
2023-05-18T11:14:28.224Z,101775.78
2023-05-18T11:17:16.392Z,101778.19
2023-05-18T11:20:12.991Z,101770.69
2023-05-18T11:23:03.656Z,101769.44
2023-05-18T11:25:38.945Z,101765.00
2023-05-18T11:28:20.905Z,101734.28
2023-05-18T11:30:53.373Z,101773.97
2023-05-18T11:33:29.930Z,101752.69
2023-05-18T11:36:08.116Z,101754.13
2023-05-18T11:38:56.839Z,101754.94
2023-05-18T11:41:39.278Z,101761.59
2023-05-18T11:44:17.304Z,101742.28
2023-05-18T11:46:58.445Z,101759.28
2023-05-18T11:49:27.923Z,101766.50
2023-05-18T11:51:58.985Z,101761.59
2023-05-18T11:54:29.115Z,101758.72
2023-05-18T11:56:57.262Z,101761.75
2023-05-18T11:59:34.348Z,101755.88
2023-05-18T12:02:04.278Z,101754.94
2023-05-18T12:04:33.608Z,101749.56
2023-05-18T12:07:06.675Z,101740.44
2023-05-18T12:09:35.226Z,101743.72
2023-05-18T12:12:03.243Z,101739.19
2023-05-18T12:14:36.034Z,101726.38
2023-05-18T12:17:04.110Z,101733.72
2023-05-18T12:19:38.293Z,101741.56
2023-05-18T12:22:06.434Z,101735.41
2023-05-18T12:24:34.244Z,101731.03
2023-05-18T12:27:06.816Z,101732.47
2023-05-18T12:29:39.187Z,101724.63
2023-05-18T12:32:09.668Z,101721.91
2023-05-18T12:34:38.366Z,101719.16
2023-05-18T12:37:07.416Z,101718.47
2023-05-18T12:39:35.319Z,101721.00
2023-05-18T12:42:11.414Z,101715.16
2023-05-18T12:44:40.757Z,101718.41
2023-05-18T12:47:08.773Z,101707.06
2023-05-18T12:49:38.204Z,101715.13
2023-05-18T12:52:14.068Z,101718.84
2023-05-18T12:54:55.630Z,101714.91
2023-05-18T12:57:26.972Z,101715.47
2023-05-18T12:59:56.403Z,101703.47
2023-05-18T13:02:32.752Z,101711.41
2023-05-18T13:05:05.632Z,101695.41
2023-05-18T13:07:34.399Z,101692.66
2023-05-18T13:10:02.900Z,101695.47
2023-05-18T13:12:41.172Z,101699.47
2023-05-18T13:15:15.627Z,101694.66
2023-05-18T13:17:50.738Z,101691.31
2023-05-18T13:20:18.705Z,101692.34
2023-05-18T13:22:46.516Z,101689.59
2023-05-18T13:25:14.344Z,101679.19
2023-05-18T13:27:42.178Z,101684.84
2023-05-18T13:30:11.069Z,101671.16
2023-05-18T13:32:40.285Z,101669.22
2023-05-18T13:35:08.530Z,101678.84
2023-05-18T13:37:36.561Z,101672.56
2023-05-18T13:40:04.955Z,101663.19
2023-05-18T13:42:33.113Z,101663.34
2023-05-18T13:45:00.981Z,101665.72
2023-05-18T13:47:28.793Z,101671.34
2023-05-18T13:49:57.949Z,101665.91
2023-05-18T13:52:26.029Z,101643.50
2023-05-18T13:54:53.841Z,101651.06
2023-05-18T13:57:23.225Z,101644.53
2023-05-18T13:59:51.109Z,101661.78
2023-05-18T14:02:18.985Z,101652.34
2023-05-18T14:04:46.944Z,101639.94
2023-05-18T14:07:16.077Z,101644.63
2023-05-18T14:09:43.876Z,101645.09
2023-05-18T14:12:12.970Z,101632.72
2023-05-18T14:14:43.130Z,101641.41
2023-05-18T14:17:11.668Z,101635.94
2023-05-18T14:19:39.621Z,101631.75
2023-05-18T14:22:07.553Z,101632.41
2023-05-18T14:24:36.803Z,101620.06
2023-05-18T14:27:04.933Z,101624.13
2023-05-18T14:29:35.911Z,101600.63
2023-05-18T14:32:04.088Z,101626.59
2023-05-18T14:34:31.914Z,101619.25
2023-05-18T14:36:59.775Z,101620.44
2023-05-18T14:39:27.561Z,101619.97
2023-05-18T14:41:56.621Z,101610.38
2023-05-18T14:44:24.385Z,101607.81
2023-05-18T14:46:53.383Z,101599.44
2023-05-18T14:49:21.225Z,101600.56
2023-05-18T14:51:49.116Z,101604.28
2023-05-18T14:54:18.176Z,101604.09
2023-05-18T14:56:46.355Z,101611.78
2023-05-18T14:59:15.678Z,101607.38
2023-05-18T15:01:43.473Z,101612.34
2023-05-18T15:04:11.395Z,101601.28
2023-05-18T15:06:39.322Z,101610.53
2023-05-18T15:09:08.335Z,101606.41
2023-05-18T15:11:36.205Z,101614.50
2023-05-18T15:14:04.039Z,101601.69
2023-05-18T15:16:33.265Z,101607.75
2023-05-18T15:19:01.156Z,101599.66
2023-05-18T15:21:28.990Z,101600.16
2023-05-18T15:23:56.766Z,101595.84
2023-05-18T15:26:24.638Z,101593.81
2023-05-18T15:28:52.374Z,101599.75
2023-05-18T15:31:20.222Z,101590.00
2023-05-18T15:33:51.246Z,101596.22
2023-05-18T15:36:19.215Z,101596.22
2023-05-18T15:38:47.044Z,101589.09
2023-05-18T15:41:16.412Z,101589.22
2023-05-18T15:43:45.037Z,101598.31
2023-05-18T15:46:12.902Z,101593.63
2023-05-18T15:48:40.835Z,101589.44
2023-05-18T15:51:10.102Z,101588.25
2023-05-18T15:53:40.520Z,101579.16
2023-05-18T15:56:10.964Z,101589.44
2023-05-18T15:58:41.056Z,101580.72
2023-05-18T16:01:08.940Z,101578.38
2023-05-18T16:03:37.089Z,101577.53
2023-05-18T16:06:08.277Z,101582.44
2023-05-18T16:08:40.550Z,101575.56
2023-05-18T16:11:08.347Z,101549.78
2023-05-18T16:13:37.861Z,101572.41
2023-05-18T16:16:06.944Z,101573.22
2023-05-18T16:18:40.931Z,101578.25
2023-05-18T16:21:09.288Z,101576.59
2023-05-18T16:23:41.220Z,101566.69
2023-05-18T16:26:09.066Z,101574.22
2023-05-18T16:28:42.783Z,101577.16
2023-05-18T16:31:12.190Z,101564.72
2023-05-18T16:33:41.070Z,101570.34
2023-05-18T16:36:14.634Z,101583.09
2023-05-18T16:38:43.895Z,101576.84
2023-05-18T16:41:12.481Z,101580.78
2023-05-18T16:43:40.242Z,101579.59
2023-05-18T16:46:11.368Z,101586.75
2023-05-18T16:48:42.295Z,101588.78
2023-05-18T16:51:10.126Z,101594.16
2023-05-18T16:53:38.081Z,101589.13
2023-05-18T16:56:07.701Z,101572.53
2023-05-18T16:58:35.692Z,101578.63
2023-05-18T17:01:09.851Z,101583.06
2023-05-18T17:03:44.069Z,101580.75
2023-05-18T17:06:12.120Z,101583.53
2023-05-18T17:08:40.045Z,101569.94
2023-05-18T17:11:09.219Z,101585.81
2023-05-18T17:13:37.115Z,101576.94
2023-05-18T17:16:06.579Z,101551.88
2023-05-18T17:18:34.488Z,101572.00
2023-05-18T17:21:02.288Z,101563.50
2023-05-18T17:23:30.141Z,101570.03
2023-05-18T17:26:06.098Z,101561.69
2023-05-18T17:28:35.863Z,101560.66
2023-05-18T17:31:04.143Z,101570.03
2023-05-18T17:33:32.080Z,101565.69
2023-05-18T17:36:00.036Z,101560.53
2023-05-18T17:38:27.912Z,101561.38
2023-05-18T17:40:56.620Z,101568.75
2023-05-18T17:43:24.547Z,101560.16
2023-05-18T17:45:53.712Z,101562.63
2023-05-18T17:48:21.591Z,101560.59
2023-05-18T17:50:49.596Z,101558.91
2023-05-18T17:53:17.745Z,101565.22
2023-05-18T17:55:45.523Z,101536.00
2023-05-18T17:58:13.273Z,101563.47
2023-05-18T18:00:41.107Z,101566.28
2023-05-18T18:03:10.532Z,101572.81
2023-05-18T18:05:38.449Z,101562.22
2023-05-18T18:08:06.430Z,101548.88
2023-05-18T18:10:34.802Z,101569.97
2023-05-18T18:13:02.716Z,101562.59
2023-05-18T18:15:30.615Z,101577.09
2023-05-18T18:17:58.540Z,101568.91
2023-05-18T18:20:27.848Z,101568.13
2023-05-18T18:22:55.645Z,101569.63
2023-05-18T18:25:23.538Z,101571.63
2023-05-18T18:27:51.319Z,101572.75
2023-05-18T18:30:19.118Z,101575.25
2023-05-18T18:32:46.887Z,101581.03
2023-05-18T18:35:14.806Z,101580.97
2023-05-18T18:37:45.700Z,101586.94
2023-05-18T18:40:14.456Z,101584.56
2023-05-18T18:42:42.565Z,101559.97
2023-05-18T18:45:11.035Z,101583.00
2023-05-18T18:47:39.916Z,101583.00
2023-05-18T18:50:08.736Z,101571.44
2023-05-18T18:52:36.884Z,101579.28
2023-05-18T18:55:07.027Z,101592.50
2023-05-18T18:57:34.932Z,101593.53
2023-05-18T19:00:04.873Z,101588.69
2023-05-18T19:02:32.652Z,101588.13
2023-05-18T19:05:00.651Z,101590.81
2023-05-18T19:07:28.556Z,101588.03
2023-05-18T19:09:56.384Z,101572.16
2023-05-18T19:12:25.896Z,101590.91
2023-05-18T19:14:53.749Z,101595.88
2023-05-18T19:17:21.849Z,101595.19
2023-05-18T19:19:49.795Z,101593.94
2023-05-18T19:22:17.703Z,101604.22
2023-05-18T19:24:46.061Z,101546.94
2023-05-18T19:27:14.125Z,101597.25
2023-05-18T19:29:43.364Z,101600.06
2023-05-18T19:32:11.916Z,101600.00
2023-05-18T19:34:39.811Z,101588.94
2023-05-18T19:37:10.256Z,101609.66
2023-05-18T19:39:38.067Z,101614.31
2023-05-18T19:42:06.918Z,101614.91
2023-05-18T19:44:34.774Z,101622.50
2023-05-18T19:47:04.392Z,101606.66
2023-05-18T19:49:34.320Z,101626.88
2023-05-18T19:52:07.860Z,101607.53
2023-05-18T19:54:36.149Z,101618.59
2023-05-18T19:57:06.670Z,101636.72
2023-05-18T19:59:34.586Z,101632.66
2023-05-18T20:02:05.115Z,101640.94
2023-05-18T20:07:01.934Z,101639.84
2023-05-18T20:09:30.911Z,101650.06
2023-05-18T20:11:58.679Z,101644.75
2023-05-18T20:14:26.977Z,101646.84
2023-05-18T20:16:56.210Z,101650.34
2023-05-18T20:19:27.577Z,101648.94
2023-05-18T20:21:55.860Z,101637.88
2023-05-18T20:24:25.017Z,101638.16
2023-05-18T20:26:52.900Z,101651.78
2023-05-18T20:29:20.747Z,101652.19
2023-05-18T20:31:48.814Z,101655.31
2023-05-18T20:34:16.663Z,101658.81
2023-05-18T20:36:45.855Z,101652.91
2023-05-18T20:39:14.463Z,101652.19
2023-05-18T20:41:42.288Z,101656.13
2023-05-18T20:44:11.294Z,101655.59
2023-05-18T20:46:42.430Z,101659.50
2023-05-18T20:49:13.667Z,101656.97
2023-05-18T20:51:41.538Z,101660.63
2023-05-18T20:54:10.798Z,101653.88
2023-05-18T20:56:38.868Z,101660.88
2023-05-18T20:59:06.728Z,101656.69
2023-05-18T21:01:39.095Z,101662.41
2023-05-18T21:04:08.675Z,101667.88
2023-05-18T21:06:40.407Z,101672.91
2023-05-18T21:09:08.357Z,101669.25
2023-05-18T21:11:37.563Z,101668.69
2023-05-18T21:14:05.415Z,101670.81
2023-05-18T21:16:33.397Z,101669.13
2023-05-18T21:19:01.493Z,101659.25
2023-05-18T21:21:29.330Z,101672.31
2023-05-18T21:23:57.199Z,101672.16
2023-05-18T21:26:25.088Z,101669.78
2023-05-18T21:28:55.091Z,101675.94
2023-05-18T21:31:23.073Z,101673.81
2023-05-18T21:33:54.578Z,101680.97
2023-05-18T21:36:33.602Z,101679.41
2023-05-18T21:39:01.755Z,101678.13
2023-05-18T21:41:29.572Z,101680.94
2023-05-18T21:44:02.362Z,101680.34
2023-05-18T21:46:30.357Z,101665.03
2023-05-18T21:49:01.177Z,101669.38
2023-05-18T21:51:31.144Z,101681.31
2023-05-18T21:53:58.965Z,101683.13
2023-05-18T21:56:27.692Z,101681.19
2023-05-18T21:58:56.939Z,101683.13
2023-05-18T22:01:27.242Z,101684.50
2023-05-18T22:03:55.822Z,101685.59
2023-05-18T22:06:23.784Z,101682.50
2023-05-18T22:08:51.733Z,101687.38
2023-05-18T22:11:19.670Z,101675.31
2023-05-18T22:13:47.476Z,101658.06
2023-05-18T22:16:15.521Z,101683.53
2023-05-18T22:18:44.713Z,101679.38
2023-05-18T22:21:12.561Z,101680.72
2023-05-18T22:23:40.312Z,101678.19
2023-05-18T22:26:08.269Z,101678.31
2023-05-18T22:28:38.259Z,101675.91
2023-05-18T22:31:06.537Z,101677.88
2023-05-18T22:33:34.383Z,101681.03
2023-05-18T22:36:04.010Z,101683.69
2023-05-18T22:38:31.819Z,101679.59
2023-05-18T22:40:59.671Z,101684.31
2023-05-18T22:43:28.927Z,101679.41
2023-05-18T22:45:56.819Z,101672.66
2023-05-18T22:48:27.582Z,101672.06
2023-05-18T22:50:55.605Z,101677.66
2023-05-18T22:53:24.890Z,101679.75
2023-05-18T22:55:52.703Z,101683.75
2023-05-18T22:58:20.544Z,101675.44
2023-05-18T23:00:48.344Z,101681.16
2023-05-18T23:03:17.445Z,101684.19
2023-05-18T23:05:46.145Z,101678.88
2023-05-18T23:08:14.220Z,101682.88
2023-05-18T23:10:44.363Z,101683.28
2023-05-18T23:13:12.295Z,101677.97
2023-05-18T23:15:41.470Z,101686.19
2023-05-18T23:18:10.313Z,101679.44
2023-05-18T23:20:38.706Z,101676.16
2023-05-18T23:23:06.895Z,101680.19
2023-05-18T23:25:34.757Z,101681.28
2023-05-18T23:28:03.895Z,101682.25
2023-05-18T23:30:32.177Z,101684.31
2023-05-18T23:33:00.968Z,101675.19
2023-05-18T23:35:29.761Z,101682.91
2023-05-18T23:37:58.969Z,101685.19
2023-05-18T23:40:27.283Z,101678.31
2023-05-18T23:42:55.682Z,101685.56
2023-05-18T23:45:25.460Z,101659.50
2023-05-18T23:47:56.077Z,101666.28
2023-05-18T23:50:24.755Z,101673.03
2023-05-18T23:52:54.303Z,101667.13
2023-05-18T23:55:24.902Z,101661.09
2023-05-18T23:57:53.236Z,101666.03
